sensor_id;sensor_type;location;lat;lon;timestamp;P1;durP1;ratioP1;P2;durP2;ratioP2
58774;SDS011;44545;47.480;19.024;2022-10-18T03:11:01;2.78;;;2.50;;
58774;SDS011;44545;47.480;19.024;2022-10-18T03:14:03;3.95;;;2.72;;
58774;SDS011;44545;47.480;19.024;2022-10-18T03:17:05;4.65;;;4.07;;
58774;SDS011;44545;47.480;19.024;2022-10-18T03:20:08;2.92;;;2.58;;
58774;SDS011;44545;47.480;19.024;2022-10-18T03:23:10;4.05;;;2.87;;
58774;SDS011;44545;47.480;19.024;2022-10-18T03:26:12;7.12;;;4.30;;
58774;SDS011;44545;47.480;19.024;2022-10-18T03:29:15;5.47;;;4.30;;
58774;SDS011;44545;47.480;19.024;2022-10-18T03:32:17;5.45;;;3.75;;
58774;SDS011;44545;47.480;19.024;2022-10-18T03:35:20;3.55;;;2.80;;
58774;SDS011;44545;47.480;19.024;2022-10-18T03:38:23;5.25;;;3.22;;
58774;SDS011;44545;47.480;19.024;2022-10-18T03:41:25;2.37;;;2.03;;
58774;SDS011;44545;47.480;19.024;2022-10-18T03:44:27;3.90;;;3.25;;
58774;SDS011;44545;47.480;19.024;2022-10-18T03:47:30;2.87;;;2.65;;
58774;SDS011;44545;47.480;19.024;2022-10-18T03:50:32;8.95;;;4.35;;
58774;SDS011;44545;47.480;19.024;2022-10-18T03:53:34;3.33;;;2.80;;
58774;SDS011;44545;47.480;19.024;2022-10-18T03:56:36;8.57;;;3.85;;
58774;SDS011;44545;47.480;19.024;2022-10-18T03:59:38;3.05;;;2.17;;
58774;SDS011;44545;47.480;19.024;2022-10-18T04:02:41;4.25;;;2.47;;
58774;SDS011;44545;47.480;19.024;2022-10-18T04:05:44;3.85;;;3.12;;
58774;SDS011;44545;47.480;19.024;2022-10-18T04:08:47;7.90;;;2.53;;
58774;SDS011;44545;47.480;19.024;2022-10-18T04:11:49;11.95;;;3.25;;
58774;SDS011;44545;47.480;19.024;2022-10-18T04:14:52;5.20;;;3.55;;
58774;SDS011;44545;47.480;19.024;2022-10-18T04:17:56;9.90;;;3.17;;
58774;SDS011;44545;47.480;19.024;2022-10-18T04:20:59;5.75;;;4.60;;
58774;SDS011;44545;47.480;19.024;2022-10-18T04:24:01;3.15;;;2.85;;
58774;SDS011;44545;47.480;19.024;2022-10-18T04:27:04;5.62;;;3.42;;
58774;SDS011;44545;47.480;19.024;2022-10-18T04:30:06;4.40;;;3.08;;
58774;SDS011;44545;47.480;19.024;2022-10-18T04:33:09;3.60;;;3.25;;
58774;SDS011;44545;47.480;19.024;2022-10-18T04:36:11;4.62;;;3.85;;
58774;SDS011;44545;47.480;19.024;2022-10-18T04:39:13;7.78;;;5.12;;
58774;SDS011;44545;47.480;19.024;2022-10-18T04:42:16;8.43;;;3.20;;
58774;SDS011;44545;47.480;19.024;2022-10-18T04:45:18;4.03;;;3.58;;
58774;SDS011;44545;47.480;19.024;2022-10-18T04:48:20;12.90;;;5.07;;
58774;SDS011;44545;47.480;19.024;2022-10-18T04:51:22;7.05;;;2.85;;
58774;SDS011;44545;47.480;19.024;2022-10-18T04:54:24;6.35;;;3.42;;
58774;SDS011;44545;47.480;19.024;2022-10-18T04:57:29;7.03;;;3.85;;
58774;SDS011;44545;47.480;19.024;2022-10-18T05:00:32;4.65;;;3.58;;
58774;SDS011;44545;47.480;19.024;2022-10-18T05:03:40;2.92;;;2.65;;
58774;SDS011;44545;47.480;19.024;2022-10-18T05:06:42;4.43;;;3.17;;
58774;SDS011;44545;47.480;19.024;2022-10-18T05:09:44;5.87;;;2.92;;
58774;SDS011;44545;47.480;19.024;2022-10-18T05:12:47;4.03;;;3.65;;
58774;SDS011;44545;47.480;19.024;2022-10-18T05:15:50;6.35;;;3.90;;
58774;SDS011;44545;47.480;19.024;2022-10-18T05:18:52;6.28;;;3.78;;
58774;SDS011;44545;47.480;19.024;2022-10-18T05:21:55;7.78;;;4.15;;
58774;SDS011;44545;47.480;19.024;2022-10-18T05:24:57;4.07;;;2.80;;
58774;SDS011;44545;47.480;19.024;2022-10-18T05:27:59;5.80;;;4.15;;
58774;SDS011;44545;47.480;19.024;2022-10-18T05:31:12;7.22;;;4.28;;
58774;SDS011;44545;47.480;19.024;2022-10-18T05:34:14;8.18;;;4.57;;
58774;SDS011;44545;47.480;19.024;2022-10-18T05:37:17;3.28;;;2.80;;
58774;SDS011;44545;47.480;19.024;2022-10-18T05:40:19;6.72;;;4.62;;
58774;SDS011;44545;47.480;19.024;2022-10-18T05:43:22;5.45;;;3.42;;
58774;SDS011;44545;47.480;19.024;2022-10-18T05:46:24;6.80;;;3.47;;
58774;SDS011;44545;47.480;19.024;2022-10-18T05:49:26;5.90;;;3.62;;
58774;SDS011;44545;47.480;19.024;2022-10-18T05:52:28;9.18;;;3.25;;
58774;SDS011;44545;47.480;19.024;2022-10-18T05:55:31;5.68;;;3.65;;
58774;SDS011;44545;47.480;19.024;2022-10-18T05:58:33;6.12;;;3.35;;
58774;SDS011;44545;47.480;19.024;2022-10-18T06:01:37;3.12;;;2.72;;
58774;SDS011;44545;47.480;19.024;2022-10-18T06:04:40;4.22;;;3.08;;
58774;SDS011;44545;47.480;19.024;2022-10-18T06:07:43;5.10;;;4.60;;
58774;SDS011;44545;47.480;19.024;2022-10-18T06:10:45;6.60;;;3.03;;
58774;SDS011;44545;47.480;19.024;2022-10-18T06:13:48;5.07;;;4.00;;
58774;SDS011;44545;47.480;19.024;2022-10-18T06:16:51;10.73;;;5.20;;
58774;SDS011;44545;47.480;19.024;2022-10-18T06:19:53;20.83;;;4.43;;
58774;SDS011;44545;47.480;19.024;2022-10-18T06:22:56;6.95;;;4.55;;
58774;SDS011;44545;47.480;19.024;2022-10-18T06:25:58;5.18;;;3.37;;
58774;SDS011;44545;47.480;19.024;2022-10-18T06:29:02;5.15;;;4.28;;
58774;SDS011;44545;47.480;19.024;2022-10-18T06:32:05;8.13;;;4.85;;
58774;SDS011;44545;47.480;19.024;2022-10-18T06:35:08;3.62;;;2.67;;
58774;SDS011;44545;47.480;19.024;2022-10-18T06:38:10;3.22;;;2.65;;
58774;SDS011;44545;47.480;19.024;2022-10-18T06:41:13;5.30;;;3.95;;
58774;SDS011;44545;47.480;19.024;2022-10-18T06:44:15;14.98;;;4.50;;
58774;SDS011;44545;47.480;19.024;2022-10-18T06:47:18;6.53;;;3.35;;
58774;SDS011;44545;47.480;19.024;2022-10-18T06:50:20;7.22;;;3.85;;
58774;SDS011;44545;47.480;19.024;2022-10-18T06:53:23;6.93;;;3.37;;
58774;SDS011;44545;47.480;19.024;2022-10-18T06:56:29;25.00;;;4.60;;
58774;SDS011;44545;47.480;19.024;2022-10-18T06:59:32;11.40;;;5.78;;
58774;SDS011;44545;47.480;19.024;2022-10-18T07:02:34;10.10;;;6.10;;
58774;SDS011;44545;47.480;19.024;2022-10-18T07:05:38;6.78;;;3.00;;
58774;SDS011;44545;47.480;19.024;2022-10-18T07:08:40;9.55;;;4.45;;
58774;SDS011;44545;47.480;19.024;2022-10-18T07:11:43;6.60;;;5.15;;
58774;SDS011;44545;47.480;19.024;2022-10-18T07:14:45;6.78;;;4.35;;
58774;SDS011;44545;47.480;19.024;2022-10-18T07:17:48;17.98;;;4.65;;
58774;SDS011;44545;47.480;19.024;2022-10-18T07:20:50;13.65;;;6.35;;
58774;SDS011;44545;47.480;19.024;2022-10-18T07:23:53;8.40;;;4.78;;
58774;SDS011;44545;47.480;19.024;2022-10-18T07:26:55;7.55;;;4.68;;
58774;SDS011;44545;47.480;19.024;2022-10-18T07:29:57;8.32;;;5.10;;
58774;SDS011;44545;47.480;19.024;2022-10-18T07:32:59;7.30;;;5.07;;
58774;SDS011;44545;47.480;19.024;2022-10-18T07:36:02;5.22;;;3.58;;
58774;SDS011;44545;47.480;19.024;2022-10-18T07:39:06;11.32;;;4.43;;
58774;SDS011;44545;47.480;19.024;2022-10-18T07:42:09;9.30;;;5.85;;
58774;SDS011;44545;47.480;19.024;2022-10-18T07:45:11;7.70;;;5.53;;
58774;SDS011;44545;47.480;19.024;2022-10-18T07:48:14;10.13;;;6.35;;
58774;SDS011;44545;47.480;19.024;2022-10-18T07:51:17;11.00;;;5.30;;
58774;SDS011;44545;47.480;19.024;2022-10-18T07:54:21;6.10;;;4.82;;
58774;SDS011;44545;47.480;19.024;2022-10-18T07:57:23;6.82;;;5.15;;
58774;SDS011;44545;47.480;19.024;2022-10-18T08:00:25;10.27;;;4.95;;
58774;SDS011;44545;47.480;19.024;2022-10-18T08:03:28;7.18;;;4.97;;
58774;SDS011;44545;47.480;19.024;2022-10-18T08:06:30;8.15;;;4.75;;
58774;SDS011;44545;47.480;19.024;2022-10-18T08:09:32;5.78;;;4.25;;
58774;SDS011;44545;47.480;19.024;2022-10-18T08:12:34;7.53;;;5.15;;
58774;SDS011;44545;47.480;19.024;2022-10-18T08:15:37;5.85;;;3.70;;
58774;SDS011;44545;47.480;19.024;2022-10-18T08:18:39;5.43;;;4.60;;
58774;SDS011;44545;47.480;19.024;2022-10-18T08:21:42;10.10;;;5.22;;
58774;SDS011;44545;47.480;19.024;2022-10-18T08:24:44;8.15;;;4.90;;
58774;SDS011;44545;47.480;19.024;2022-10-18T08:27:46;8.07;;;5.95;;
58774;SDS011;44545;47.480;19.024;2022-10-18T08:30:48;7.28;;;4.45;;
58774;SDS011;44545;47.480;19.024;2022-10-18T08:33:50;8.80;;;5.15;;
58774;SDS011;44545;47.480;19.024;2022-10-18T08:36:53;5.82;;;4.55;;
58774;SDS011;44545;47.480;19.024;2022-10-18T08:39:55;7.78;;;4.62;;
58774;SDS011;44545;47.480;19.024;2022-10-18T08:46:46;8.57;;;4.70;;
58774;SDS011;44545;47.480;19.024;2022-10-18T08:49:50;13.57;;;6.43;;
58774;SDS011;44545;47.480;19.024;2022-10-18T08:52:58;8.73;;;4.53;;
58774;SDS011;44545;47.480;19.024;2022-10-18T08:56:06;7.18;;;4.35;;
58774;SDS011;44545;47.480;19.024;2022-10-18T08:59:15;8.15;;;4.43;;
58774;SDS011;44545;47.480;19.024;2022-10-18T09:08:39;6.05;;;3.50;;
58774;SDS011;44545;47.480;19.024;2022-10-18T09:11:59;18.98;;;3.33;;
58774;SDS011;44545;47.480;19.024;2022-10-18T09:15:19;12.20;;;4.45;;
58774;SDS011;44545;47.480;19.024;2022-10-18T09:18:31;4.43;;;3.25;;
58774;SDS011;44545;47.480;19.024;2022-10-18T09:22:04;8.50;;;3.87;;
58774;SDS011;44545;47.480;19.024;2022-10-18T09:38:31;5.00;;;3.17;;
58774;SDS011;44545;47.480;19.024;2022-10-18T09:44:46;4.22;;;2.30;;
58774;SDS011;44545;47.480;19.024;2022-10-18T09:48:11;13.48;;;3.10;;
58774;SDS011;44545;47.480;19.024;2022-10-18T09:51:20;7.68;;;2.95;;
58774;SDS011;44545;47.480;19.024;2022-10-18T09:57:56;5.18;;;2.78;;
58774;SDS011;44545;47.480;19.024;2022-10-18T10:00:59;4.47;;;2.25;;
58774;SDS011;44545;47.480;19.024;2022-10-18T10:04:02;4.55;;;2.33;;
58774;SDS011;44545;47.480;19.024;2022-10-18T10:07:06;3.37;;;2.62;;
58774;SDS011;44545;47.480;19.024;2022-10-18T10:10:15;3.60;;;2.67;;
58774;SDS011;44545;47.480;19.024;2022-10-18T10:13:18;5.85;;;3.67;;
58774;SDS011;44545;47.480;19.024;2022-10-18T10:16:27;5.85;;;3.60;;
58774;SDS011;44545;47.480;19.024;2022-10-18T10:19:30;3.85;;;1.98;;
58774;SDS011;44545;47.480;19.024;2022-10-18T10:22:36;5.32;;;3.10;;
58774;SDS011;44545;47.480;19.024;2022-10-18T10:25:42;5.28;;;2.40;;
58774;SDS011;44545;47.480;19.024;2022-10-18T10:28:44;5.25;;;2.33;;
58774;SDS011;44545;47.480;19.024;2022-10-18T10:32:00;4.32;;;2.65;;
58774;SDS011;44545;47.480;19.024;2022-10-18T10:35:18;2.90;;;2.00;;
58774;SDS011;44545;47.480;19.024;2022-10-18T10:38:42;4.00;;;2.30;;
58774;SDS011;44545;47.480;19.024;2022-10-18T10:41:46;5.00;;;1.98;;
58774;SDS011;44545;47.480;19.024;2022-10-18T10:44:56;5.75;;;2.40;;
58774;SDS011;44545;47.480;19.024;2022-10-18T10:48:03;4.55;;;2.60;;
58774;SDS011;44545;47.480;19.024;2022-10-18T10:51:08;6.22;;;2.83;;
58774;SDS011;44545;47.480;19.024;2022-10-18T10:54:16;5.60;;;2.30;;
58774;SDS011;44545;47.480;19.024;2022-10-18T10:57:22;4.30;;;2.55;;
58774;SDS011;44545;47.480;19.024;2022-10-18T11:03:36;5.15;;;2.53;;
58774;SDS011;44545;47.480;19.024;2022-10-18T11:06:49;3.60;;;2.22;;
58774;SDS011;44545;47.480;19.024;2022-10-18T11:10:09;4.82;;;2.60;;
58774;SDS011;44545;47.480;19.024;2022-10-18T11:14:00;4.35;;;2.40;;
58774;SDS011;44545;47.480;19.024;2022-10-18T11:17:35;3.90;;;2.00;;
58774;SDS011;44545;47.480;19.024;2022-10-18T11:20:26;3.58;;;2.33;;
58774;SDS011;44545;47.480;19.024;2022-10-18T11:23:35;3.55;;;2.42;;
58774;SDS011;44545;47.480;19.024;2022-10-18T11:26:46;3.67;;;2.50;;
58774;SDS011;44545;47.480;19.024;2022-10-18T11:33:36;9.00;;;2.40;;
58774;SDS011;44545;47.480;19.024;2022-10-18T11:40:56;6.50;;;2.50;;
58774;SDS011;44545;47.480;19.024;2022-10-18T11:44:29;3.37;;;2.20;;
58774;SDS011;44545;47.480;19.024;2022-10-18T11:48:04;3.28;;;2.05;;
58774;SDS011;44545;47.480;19.024;2022-10-18T12:01:43;3.08;;;1.62;;
58774;SDS011;44545;47.480;19.024;2022-10-18T12:05:22;3.60;;;1.60;;
58774;SDS011;44545;47.480;19.024;2022-10-18T12:08:27;4.75;;;1.85;;
58774;SDS011;44545;47.480;19.024;2022-10-18T12:11:45;3.40;;;1.95;;
58774;SDS011;44545;47.480;19.024;2022-10-18T12:15:16;2.90;;;1.67;;
58774;SDS011;44545;47.480;19.024;2022-10-18T12:18:22;4.87;;;2.20;;
58774;SDS011;44545;47.480;19.024;2022-10-18T12:21:28;5.05;;;1.92;;
58774;SDS011;44545;47.480;19.024;2022-10-18T12:24:32;6.03;;;2.22;;
58774;SDS011;44545;47.480;19.024;2022-10-18T12:27:38;3.47;;;2.00;;
58774;SDS011;44545;47.480;19.024;2022-10-18T12:40:50;12.48;;;2.22;;
58774;SDS011;44545;47.480;19.024;2022-10-18T12:43:59;1.27;;;1.00;;
58774;SDS011;44545;47.480;19.024;2022-10-18T12:47:05;4.35;;;1.60;;
58774;SDS011;44545;47.480;19.024;2022-10-18T12:53:28;2.87;;;1.73;;
58774;SDS011;44545;47.480;19.024;2022-10-18T12:56:33;3.45;;;1.80;;
58774;SDS011;44545;47.480;19.024;2022-10-18T13:02:41;5.78;;;2.17;;
58774;SDS011;44545;47.480;19.024;2022-10-18T13:09:18;3.25;;;1.85;;
58774;SDS011;44545;47.480;19.024;2022-10-18T13:18:55;4.15;;;2.37;;
58774;SDS011;44545;47.480;19.024;2022-10-18T13:25:23;3.00;;;1.77;;
58774;SDS011;44545;47.480;19.024;2022-10-18T13:32:12;2.90;;;1.87;;
58774;SDS011;44545;47.480;19.024;2022-10-18T13:39:02;3.87;;;1.87;;
58774;SDS011;44545;47.480;19.024;2022-10-18T13:51:37;3.67;;;1.98;;
58774;SDS011;44545;47.480;19.024;2022-10-18T13:58:35;3.12;;;1.58;;
58774;SDS011;44545;47.480;19.024;2022-10-18T14:08:33;2.75;;;1.37;;
58774;SDS011;44545;47.480;19.024;2022-10-18T14:11:40;3.60;;;1.65;;
58774;SDS011;44545;47.480;19.024;2022-10-18T14:14:50;4.15;;;1.90;;
58774;SDS011;44545;47.480;19.024;2022-10-18T14:18:12;4.22;;;2.67;;
58774;SDS011;44545;47.480;19.024;2022-10-18T14:21:20;5.62;;;2.25;;
58774;SDS011;44545;47.480;19.024;2022-10-18T14:24:32;3.08;;;1.80;;
58774;SDS011;44545;47.480;19.024;2022-10-18T14:27:35;2.45;;;1.52;;
58774;SDS011;44545;47.480;19.024;2022-10-18T14:30:57;7.50;;;1.80;;
58774;SDS011;44545;47.480;19.024;2022-10-18T14:34:00;1.70;;;1.15;;
58774;SDS011;44545;47.480;19.024;2022-10-18T14:37:02;2.97;;;2.25;;
58774;SDS011;44545;47.480;19.024;2022-10-18T14:40:04;3.10;;;1.77;;
58774;SDS011;44545;47.480;19.024;2022-10-18T14:43:17;1.80;;;1.48;;
58774;SDS011;44545;47.480;19.024;2022-10-18T14:46:21;2.87;;;2.17;;
58774;SDS011;44545;47.480;19.024;2022-10-18T14:49:32;2.22;;;1.55;;
58774;SDS011;44545;47.480;19.024;2022-10-18T14:52:34;2.80;;;1.60;;
58774;SDS011;44545;47.480;19.024;2022-10-18T14:55:37;3.03;;;1.70;;
58774;SDS011;44545;47.480;19.024;2022-10-18T14:58:39;1.80;;;1.40;;
58774;SDS011;44545;47.480;19.024;2022-10-18T15:02:02;2.45;;;1.60;;
58774;SDS011;44545;47.480;19.024;2022-10-18T15:05:25;2.90;;;1.75;;
58774;SDS011;44545;47.480;19.024;2022-10-18T15:08:33;3.55;;;1.98;;
58774;SDS011;44545;47.480;19.024;2022-10-18T15:11:38;2.15;;;1.58;;
58774;SDS011;44545;47.480;19.024;2022-10-18T15:14:42;13.57;;;1.70;;
